Time;durP1;ratioP1;P1;durP2;ratioP2;P2;SDS_P1;SDS_P2;PMS_P1;PMS_P2;Temp;Humidity;BMP_temperature;BMP_pressure;BME280_temperature;BME280_humidity;BME280_pressure;Samples;Min_cycle;Max_cycle;Signal;HPM_P1;HPM_P2
2023/11/02 00:02:25;;;;;;;1.70;1.58;;;7.40;99.90;;;;;;4957063;28;20228;-67
2023/11/02 00:04:52;;;;;;;1.55;1.40;;;7.40;99.90;;;;;;4956542;28;20260;-67
2023/11/02 00:07:19;;;;;;;1.45;0.90;;;7.40;99.90;;;;;;4957512;28;20200;-67
2023/11/02 00:09:46;;;;;;;1.55;1.15;;;7.30;99.90;;;;;;4956177;28;20292;-67
2023/11/02 00:12:19;;;;;;;0.90;0.80;;;7.30;99.90;;;;;;4957881;28;20570;-68
2023/11/02 00:14:51;;;;;;;2.08;1.20;;;7.20;99.90;;;;;;4960126;28;20221;-67
2023/11/02 04:30:28;;;;;;;1.60;1.20;;;8.20;99.90;;;;;;6083704;23;20181;31
2023/11/02 04:32:57;;;;;;;2.75;1.60;;;8.30;99.90;;;;;;4930539;29;20303;-92
2023/11/02 04:35:24;;;;;;;2.15;1.95;;;8.30;99.90;;;;;;4935783;29;20292;-92
2023/11/02 04:38:05;;;;;;;2.33;1.50;;;8.20;99.90;;;;;;4930886;29;20609;-92
2023/11/02 04:40:32;;;;;;;2.35;1.60;;;8.30;99.90;;;;;;4931413;29;20249;-94
2023/11/02 04:42:59;;;;;;;2.30;1.70;;;8.30;99.90;;;;;;4928488;29;20225;-93
2023/11/02 04:45:26;;;;;;;1.42;1.33;;;8.40;99.90;;;;;;4960364;23;20607;-67
2023/11/02 04:47:53;;;;;;;2.75;1.63;;;8.40;99.90;;;;;;4950841;28;20248;-68
2023/11/02 04:50:21;;;;;;;2.60;1.65;;;8.40;99.90;;;;;;4950592;28;20708;-67
2023/11/02 04:52:49;;;;;;;3.00;1.88;;;8.40;99.90;;;;;;4952439;28;20824;-67
2023/11/02 04:55:16;;;;;;;1.88;1.70;;;8.40;99.90;;;;;;4952515;28;20209;-67
2023/11/02 04:57:42;;;;;;;2.40;1.50;;;8.40;99.90;;;;;;4952159;28;20579;-67
2023/11/02 05:00:10;;;;;;;1.90;1.70;;;8.50;99.90;;;;;;4952692;28;20200;-67
2023/11/02 05:02:37;;;;;;;2.03;1.83;;;8.50;99.90;;;;;;4953458;28;20224;-67
2023/11/02 05:05:04;;;;;;;1.40;1.20;;;8.50;99.90;;;;;;4945852;28;20670;-67
2023/11/02 05:07:32;;;;;;;2.10;1.58;;;8.50;99.90;;;;;;4949746;28;20208;-66
2023/11/02 05:09:59;;;;;;;1.23;1.13;;;8.60;99.90;;;;;;4949297;28;20209;-67
2023/11/02 05:12:25;;;;;;;1.20;1.10;;;8.60;99.90;;;;;;4947010;28;20342;-67
2023/11/02 05:14:52;;;;;;;3.42;1.95;;;8.60;99.90;;;;;;4948789;28;20573;-67
2023/11/02 05:17:19;;;;;;;1.52;1.25;;;8.60;99.90;;;;;;4948242;28;20235;-67
2023/11/02 05:19:45;;;;;;;1.65;1.20;;;8.70;99.90;;;;;;4947908;28;20208;-66
2023/11/02 05:22:12;;;;;;;1.10;1.00;;;8.70;99.90;;;;;;4951467;28;20231;-67
2023/11/02 05:24:40;;;;;;;1.40;1.20;;;8.60;99.90;;;;;;4952955;28;20213;-67
2023/11/02 05:27:07;;;;;;;1.40;1.30;;;8.60;99.90;;;;;;4952294;28;20251;-67
2023/11/02 05:29:34;;;;;;;1.58;1.10;;;8.60;99.90;;;;;;4952798;28;20209;-67
2023/11/02 05:32:01;;;;;;;1.83;1.40;;;8.60;99.90;;;;;;4951432;28;20235;-67
2023/11/02 05:34:27;;;;;;;1.73;1.60;;;8.60;99.90;;;;;;4952698;28;20208;-67
2023/11/02 05:36:54;;;;;;;1.10;1.00;;;8.70;99.90;;;;;;4951877;28;20228;-67
2023/11/02 05:39:21;;;;;;;1.25;1.15;;;8.70;99.90;;;;;;4952670;28;20741;-67
2023/11/02 05:41:49;;;;;;;1.63;1.30;;;8.70;99.90;;;;;;4952471;28;20228;-67
2023/11/02 05:44:16;;;;;;;1.67;1.50;;;8.70;99.90;;;;;;4952588;28;20223;-67
2023/11/02 05:46:43;;;;;;;1.38;1.10;;;8.70;99.90;;;;;;4952210;28;20684;-67
2023/11/02 05:49:09;;;;;;;1.25;1.10;;;8.70;99.90;;;;;;4952556;28;20635;-67
2023/11/02 05:51:36;;;;;;;1.58;1.30;;;8.70;99.90;;;;;;4952670;28;20239;-66
2023/11/02 05:54:03;;;;;;;1.60;1.45;;;8.70;99.90;;;;;;4952596;28;20217;-67
2023/11/02 05:56:29;;;;;;;1.90;1.30;;;8.70;99.90;;;;;;4952125;28;20217;-66
2023/11/02 05:58:58;;;;;;;1.42;1.15;;;8.80;99.90;;;;;;4952389;28;20212;-66
2023/11/02 06:01:25;;;;;;;2.78;1.38;;;8.70;99.90;;;;;;4952584;28;20237;-67
2023/11/02 06:03:51;;;;;;;4.03;1.63;;;8.80;99.90;;;;;;4952252;28;20729;-67
2023/11/02 06:06:18;;;;;;;3.63;1.00;;;8.80;99.90;;;;;;4952274;28;20232;-67
2023/11/02 06:08:45;;;;;;;1.35;0.98;;;8.80;99.90;;;;;;4952407;28;20208;-67
2023/11/02 06:11:11;;;;;;;1.55;1.05;;;8.80;99.90;;;;;;4952095;28;20705;-66
2023/11/02 06:13:38;;;;;;;1.10;1.00;;;8.80;99.90;;;;;;4952502;28;20220;-66
2023/11/02 06:16:08;;;;;;;1.20;0.98;;;8.90;99.90;;;;;;4952099;28;20213;-66
2023/11/02 06:18:34;;;;;;;1.15;1.05;;;9.00;99.90;;;;;;4946768;28;20251;-66
2023/11/02 06:21:01;;;;;;;1.40;1.30;;;9.00;99.90;;;;;;4952253;28;20225;-66
2023/11/02 06:23:28;;;;;;;1.83;1.73;;;9.00;99.90;;;;;;4954632;28;20685;-66
2023/11/02 06:25:55;;;;;;;3.85;1.10;;;9.00;99.90;;;;;;4955425;28;20516;-66
2023/11/02 06:28:22;;;;;;;2.15;1.35;;;9.00;99.90;;;;;;4955457;28;20212;-66
2023/11/02 06:30:49;;;;;;;1.10;0.90;;;9.00;99.90;;;;;;4955642;28;20267;-67
2023/11/02 06:33:23;;;;;;;2.15;1.30;;;9.00;99.90;;;;;;4955546;28;20215;-67
2023/11/02 06:35:49;;;;;;;1.30;1.20;;;9.00;99.90;;;;;;4955520;28;20209;-67
2023/11/02 06:38:17;;;;;;;1.13;0.90;;;9.00;99.90;;;;;;4955000;28;20232;-67
2023/11/02 06:40:44;;;;;;;1.65;1.15;;;9.00;99.90;;;;;;4955459;28;20229;-67
2023/11/02 06:43:11;;;;;;;1.10;1.00;;;8.90;99.90;;;;;;4955245;28;20209;-66
2023/11/02 06:45:38;;;;;;;1.02;0.93;;;8.90;99.90;;;;;;4955138;28;20215;-67
2023/11/02 06:48:05;;;;;;;2.20;1.38;;;8.90;99.90;;;;;;4955018;28;20241;-67
2023/11/02 06:50:34;;;;;;;1.17;1.00;;;8.90;99.90;;;;;;4949863;28;20236;-66
2023/11/02 06:53:00;;;;;;;1.70;1.40;;;8.90;99.90;;;;;;4955171;28;20769;-67
2023/11/02 06:55:27;;;;;;;1.45;1.13;;;8.80;99.90;;;;;;4955301;28;20314;-66
2023/11/02 06:57:54;;;;;;;2.25;1.67;;;8.80;99.90;;;;;;4954887;28;20235;-67
2023/11/02 07:00:22;;;;;;;2.67;1.25;;;8.80;99.90;;;;;;4955371;28;20239;-67
2023/11/02 07:02:49;;;;;;;1.10;1.00;;;8.80;99.90;;;;;;4955193;28;20231;-67
2023/11/02 07:05:16;;;;;;;1.83;1.20;;;8.80;99.90;;;;;;4954689;28;20223;-66
2023/11/02 07:07:48;;;;;;;2.30;1.60;;;8.80;99.90;;;;;;4954642;28;20208;-67
2023/11/02 07:10:15;;;;;;;2.03;1.65;;;8.80;99.90;;;;;;4954911;28;20291;-67
2023/11/02 07:12:42;;;;;;;3.10;1.35;;;8.80;99.90;;;;;;4954341;28;20745;-67
2023/11/02 07:15:10;;;;;;;1.80;1.40;;;8.80;99.90;;;;;;4954545;28;20557;-67
2023/11/02 07:17:37;;;;;;;1.05;0.95;;;8.80;99.90;;;;;;4954394;28;20319;-67
2023/11/02 07:20:05;;;;;;;2.47;1.10;;;8.70;99.90;;;;;;4954857;28;20211;-66
2023/11/02 07:22:32;;;;;;;1.55;1.30;;;8.70;99.90;;;;;;4948371;28;20314;-67
2023/11/02 07:25:01;;;;;;;1.30;1.10;;;8.80;99.90;;;;;;4954572;28;20205;-66
2023/11/02 07:27:28;;;;;;;1.52;1.30;;;8.80;99.90;;;;;;4954047;28;20279;-66
2023/11/02 07:29:55;;;;;;;3.53;1.90;;;8.80;99.90;;;;;;4954616;28;20205;-66
2023/11/02 07:32:22;;;;;;;1.50;1.10;;;8.80;99.90;;;;;;4954572;28;20248;-66
2023/11/02 07:34:49;;;;;;;2.15;1.70;;;8.80;99.90;;;;;;4953931;28;20597;-66
2023/11/02 07:37:15;;;;;;;2.42;1.60;;;8.70;99.90;;;;;;4953849;28;20227;-67
2023/11/02 07:39:43;;;;;;;3.35;1.60;;;8.70;99.90;;;;;;4954442;28;20208;-66
2023/11/02 07:42:11;;;;;;;2.30;1.20;;;8.70;99.90;;;;;;4954131;28;20725;-66
2023/11/02 07:44:38;;;;;;;2.33;1.50;;;8.60;99.90;;;;;;4954348;28;20242;-66
2023/11/02 07:47:05;;;;;;;2.63;1.70;;;8.70;99.90;;;;;;4953868;28;20589;-66
2023/11/02 07:49:31;;;;;;;1.50;1.40;;;8.70;99.90;;;;;;4947489;28;20205;-67
2023/11/02 07:51:58;;;;;;;2.63;1.33;;;8.60;99.90;;;;;;4950145;28;20235;-67
2023/11/02 07:54:25;;;;;;;2.60;2.15;;;8.70;99.90;;;;;;4952744;28;20216;-66
2023/11/02 07:56:51;;;;;;;4.50;2.40;;;8.60;99.90;;;;;;4953216;28;20231;-67
2023/11/02 07:59:19;;;;;;;3.55;2.47;;;8.60;99.90;;;;;;4953204;28;20228;-67
2023/11/02 08:01:46;;;;;;;3.95;2.53;;;8.70;99.90;;;;;;4953760;28;20232;-66
2023/11/02 08:04:13;;;;;;;2.33;1.80;;;8.70;99.90;;;;;;4953664;28;20693;-66
2023/11/02 08:06:40;;;;;;;3.00;2.30;;;8.70;99.90;;;;;;4952820;28;20234;-66
2023/11/02 08:09:08;;;;;;;1.80;1.52;;;8.80;99.90;;;;;;4953681;28;20235;-66
2023/11/02 08:11:39;;;;;;;1.50;1.30;;;8.80;99.90;;;;;;4953448;28;20276;-67
2023/11/02 08:14:05;;;;;;;2.20;1.65;;;8.80;99.90;;;;;;4953245;28;20272;-67
2023/11/02 08:16:34;;;;;;;2.00;1.65;;;8.80;99.90;;;;;;4945912;28;20240;-67
2023/11/02 08:19:01;;;;;;;3.50;2.00;;;8.70;99.90;;;;;;4953564;28;20220;-67
2023/11/02 08:21:27;;;;;;;1.85;1.20;;;8.70;99.90;;;;;;4952901;28;20231;-66
2023/11/02 08:23:54;;;;;;;1.20;1.10;;;8.70;99.90;;;;;;4952947;28;20219;-66
2023/11/02 08:26:21;;;;;;;3.92;1.65;;;8.70;99.90;;;;;;4952501;28;20216;-66
2023/11/02 08:28:50;;;;;;;1.90;1.50;;;8.70;99.90;;;;;;4952919;28;20205;-66
2023/11/02 08:31:22;;;;;;;1.30;1.20;;;8.70;99.90;;;;;;4953079;28;20229;-67
2023/11/02 08:33:51;;;;;;;1.60;1.42;;;8.70;99.90;;;;;;4953132;28;20204;-67
2023/11/02 08:36:18;;;;;;;3.05;1.40;;;8.70;99.90;;;;;;4952131;28;20252;-66
2023/11/02 08:38:45;;;;;;;1.38;1.25;;;8.70;99.90;;;;;;4953017;28;20222;-66
2023/11/02 08:41:22;;;;;;;1.95;1.52;;;8.70;99.90;;;;;;4952964;28;20311;-67
2023/11/02 08:43:50;;;;;;;1.42;1.15;;;8.70;99.90;;;;;;4952632;28;20239;-66
2023/11/02 08:46:18;;;;;;;1.25;1.02;;;8.70;99.90;;;;;;4951293;28;20217;-66
2023/11/02 08:48:45;;;;;;;1.40;1.30;;;8.80;99.90;;;;;;4952615;28;20219;-66
2023/11/02 08:51:15;;;;;;;1.33;1.10;;;8.70;99.90;;;;;;4952803;28;20247;-67
2023/11/02 08:53:42;;;;;;;1.83;1.10;;;8.80;99.90;;;;;;4952807;28;20204;-67
2023/11/02 08:56:09;;;;;;;1.30;1.20;;;8.80;99.90;;;;;;4952411;28;20213;-67
2023/11/02 08:58:41;;;;;;;2.70;1.60;;;8.80;99.90;;;;;;4952199;28;20228;-67
2023/11/02 09:01:10;;;;;;;2.35;1.30;;;8.90;99.90;;;;;;4952446;28;20269;-67
2023/11/02 09:03:37;;;;;;;1.60;1.50;;;8.90;99.90;;;;;;4952715;28;20208;-67
2023/11/02 09:06:05;;;;;;;2.85;1.50;;;8.90;99.90;;;;;;4952507;28;20257;-67
2023/11/02 09:08:34;;;;;;;1.85;1.42;;;9.00;99.90;;;;;;4952528;28;20216;-67
2023/11/02 09:11:00;;;;;;;2.40;1.30;;;9.00;99.90;;;;;;4952431;28;20239;-67
2023/11/02 09:13:27;;;;;;;1.42;1.33;;;9.10;99.90;;;;;;4951996;28;20235;-67
2023/11/02 09:15:54;;;;;;;4.20;1.40;;;9.20;99.90;;;;;;4952265;28;20673;-67
2023/11/02 09:18:21;;;;;;;1.90;1.40;;;9.20;99.90;;;;;;4952328;28;20235;-67
2023/11/02 09:20:49;;;;;;;1.98;1.48;;;9.20;99.90;;;;;;4952122;28;20311;-67
2023/11/02 09:23:16;;;;;;;1.63;1.52;;;9.30;99.90;;;;;;4952266;28;20606;-66
2023/11/02 09:25:44;;;;;;;2.90;1.80;;;9.30;99.90;;;;;;4952122;28;20280;-66
2023/11/02 09:28:11;;;;;;;3.00;1.30;;;9.20;99.90;;;;;;4951717;28;20208;-66
2023/11/02 09:30:38;;;;;;;2.63;1.40;;;9.20;99.90;;;;;;4952725;28;20236;-66
2023/11/02 09:33:05;;;;;;;1.52;1.40;;;9.20;99.90;;;;;;4952658;28;20520;-66
2023/11/02 09:35:32;;;;;;;1.10;1.00;;;9.20;99.90;;;;;;4951573;28;20212;-66
2023/11/02 09:37:58;;;;;;;1.92;1.63;;;9.20;99.90;;;;;;4951800;28;20209;-66
2023/11/02 09:40:25;;;;;;;1.83;1.25;;;9.20;99.90;;;;;;4951945;28;20685;-66
2023/11/02 09:42:53;;;;;;;1.50;1.40;;;9.30;99.90;;;;;;4951721;28;20200;-66
2023/11/02 09:45:20;;;;;;;2.03;1.45;;;9.30;99.90;;;;;;4952035;28;20220;-66
2023/11/02 09:47:47;;;;;;;2.25;1.40;;;9.30;99.90;;;;;;4951948;28;20712;-66
2023/11/02 09:50:14;;;;;;;1.10;1.00;;;9.40;99.90;;;;;;4951938;28;20204;-66
2023/11/02 09:52:41;;;;;;;1.48;1.30;;;9.40;99.90;;;;;;4951868;28;20205;-66
2023/11/02 09:55:10;;;;;;;1.00;0.90;;;9.40;99.90;;;;;;4952128;28;20256;-66
2023/11/02 09:57:37;;;;;;;1.52;1.42;;;9.50;99.90;;;;;;4952595;28;20233;-66
2023/11/02 10:00:07;;;;;;;1.42;1.33;;;9.50;99.90;;;;;;4955325;28;20217;-67
2023/11/02 10:02:35;;;;;;;1.33;1.00;;;9.50;99.90;;;;;;4955595;28;20231;-67
2023/11/02 10:05:03;;;;;;;1.00;0.90;;;9.50;99.90;;;;;;4955623;28;20216;-67
2023/11/02 10:07:30;;;;;;;2.50;1.30;;;9.60;99.90;;;;;;4955260;28;20219;-67
2023/11/02 10:09:56;;;;;;;3.78;1.20;;;9.60;99.90;;;;;;4955884;28;20197;-67
2023/11/02 10:12:23;;;;;;;1.90;1.27;;;9.60;99.90;;;;;;4955735;28;20243;-67
2023/11/02 10:14:50;;;;;;;2.00;1.35;;;9.70;99.90;;;;;;4955746;28;20223;-67
2023/11/02 10:17:19;;;;;;;1.33;1.00;;;9.70;99.90;;;;;;4955329;28;20213;-66
2023/11/02 10:19:46;;;;;;;2.55;1.20;;;9.70;99.90;;;;;;4955683;28;20217;-66
2023/11/02 10:22:13;;;;;;;1.25;1.13;;;9.80;99.90;;;;;;4955847;28;20221;-66
2023/11/02 10:24:40;;;;;;;1.33;1.00;;;9.80;99.90;;;;;;4955725;28;20850;-66
2023/11/02 10:27:07;;;;;;;1.48;0.90;;;9.80;99.90;;;;;;4955166;28;20208;-66
2023/11/02 10:29:35;;;;;;;1.38;1.10;;;9.90;99.90;;;;;;4955359;28;20307;-66
2023/11/02 10:32:02;;;;;;;1.50;1.02;;;9.90;99.90;;;;;;4955798;28;20656;-66
2023/11/02 10:34:30;;;;;;;2.75;1.65;;;10.00;99.90;;;;;;4955116;28;20212;-66
2023/11/02 10:36:57;;;;;;;2.33;0.93;;;10.00;99.90;;;;;;4953335;28;20259;-67
2023/11/02 10:39:31;;;;;;;1.23;1.00;;;10.00;99.90;;;;;;4955339;28;20256;-66
2023/11/02 10:41:59;;;;;;;1.77;1.23;;;10.00;99.90;;;;;;4954753;28;20284;-66
2023/11/02 10:44:28;;;;;;;1.00;0.80;;;10.00;99.90;;;;;;4955047;28;20243;-67
2023/11/02 10:46:59;;;;;;;1.00;0.90;;;10.10;99.90;;;;;;4953902;28;20232;-66
2023/11/02 10:49:31;;;;;;;0.80;0.70;;;10.10;99.90;;;;;;4955057;28;20212;-67
2023/11/02 10:51:58;;;;;;;1.75;0.93;;;10.10;99.90;;;;;;4954878;28;20235;-67
2023/11/02 10:54:37;;;;;;;1.48;0.95;;;10.10;99.90;;;;;;4948039;28;20607;-67
2023/11/02 10:57:10;;;;;;;1.02;0.85;;;10.10;99.90;;;;;;4954716;28;20229;-67
2023/11/02 10:59:37;;;;;;;1.20;1.10;;;10.10;99.90;;;;;;4954226;28;20236;-66
2023/11/02 11:02:04;;;;;;;0.80;0.80;;;10.10;99.90;;;;;;4952936;28;20251;-66
2023/11/02 11:04:35;;;;;;;1.33;1.20;;;10.10;99.90;;;;;;4952971;28;20222;-67
2023/11/02 11:07:04;;;;;;;1.15;1.05;;;10.10;99.90;;;;;;4953601;28;20208;-67
2023/11/02 11:09:32;;;;;;;1.20;0.95;;;10.10;99.90;;;;;;4952194;28;20229;-67
2023/11/02 11:11:59;;;;;;;1.10;0.90;;;10.10;99.90;;;;;;4952875;28;20833;-67
2023/11/02 11:14:28;;;;;;;1.50;1.10;;;10.00;99.90;;;;;;4954636;28;20609;-67
2023/11/02 11:16:57;;;;;;;1.88;1.13;;;10.00;99.90;;;;;;4953988;28;20213;-67
2023/11/02 11:19:24;;;;;;;2.08;0.85;;;10.00;99.90;;;;;;4953770;28;20221;-66
2023/11/02 11:21:55;;;;;;;1.30;0.90;;;10.00;99.90;;;;;;4954438;28;20225;-67
2023/11/02 11:24:30;;;;;;;1.02;0.88;;;10.00;99.90;;;;;;4954350;28;20205;-66
2023/11/02 11:26:59;;;;;;;1.00;0.73;;;10.00;99.90;;;;;;4953552;28;20207;-66
2023/11/02 11:29:34;;;;;;;1.10;1.00;;;10.00;99.90;;;;;;4954233;28;20240;-66
2023/11/02 11:32:01;;;;;;;0.80;0.70;;;10.00;99.90;;;;;;4954008;28;20239;-66
2023/11/02 11:34:28;;;;;;;1.20;0.80;;;10.00;99.90;;;;;;4953791;28;20291;-66
2023/11/02 11:37:37;;;;;;;1.02;0.88;;;9.90;99.90;;;;;;4953638;28;20665;-67
2023/11/02 11:40:06;;;;;;;0.90;0.80;;;9.90;99.90;;;;;;4954000;28;20224;-66
2023/11/02 11:42:55;;;;;;;1.45;0.95;;;9.90;99.90;;;;;;4953662;28;20252;-67
2023/11/02 11:45:30;;;;;;;0.80;0.70;;;9.90;99.90;;;;;;4954177;28;20213;-67
2023/11/02 11:47:57;;;;;;;1.00;0.85;;;9.80;99.90;;;;;;4953388;28;20208;-66
2023/11/02 11:50:35;;;;;;;1.27;0.90;;;9.80;99.90;;;;;;4954051;28;20205;-66
2023/11/02 11:53:11;;;;;;;0.98;0.70;;;9.80;99.90;;;;;;4949758;28;20236;-67
2023/11/02 11:55:39;;;;;;;2.60;1.00;;;9.80;99.90;;;;;;4951688;28;20215;-67
2023/11/02 11:58:08;;;;;;;1.85;0.95;;;9.90;99.90;;;;;;4953624;28;20744;-67
2023/11/02 12:00:36;;;;;;;1.38;0.80;;;9.80;99.90;;;;;;4950837;28;20242;-66
2023/11/02 12:03:07;;;;;;;1.58;0.93;;;9.80;99.90;;;;;;4953069;28;20288;-66
2023/11/02 12:05:55;;;;;;;0.90;0.80;;;9.80;99.90;;;;;;4955235;28;20571;-66
2023/11/02 12:08:25;;;;;;;1.00;0.90;;;9.80;99.90;;;;;;4953159;28;20212;-66
2023/11/02 12:10:54;;;;;;;1.10;0.85;;;9.80;99.90;;;;;;4951914;28;20581;-66
2023/11/02 12:13:21;;;;;;;0.80;0.70;;;9.80;99.90;;;;;;4952666;28;20212;-66
2023/11/02 12:15:57;;;;;;;0.90;0.70;;;9.80;99.90;;;;;;4959022;28;20212;-66
2023/11/02 12:18:28;;;;;;;0.80;0.70;;;9.80;99.90;;;;;;4953415;28;20212;-66
2023/11/02 12:20:56;;;;;;;1.00;0.85;;;9.80;99.90;;;;;;4953085;28;20315;-66
2023/11/02 12:23:32;;;;;;;1.55;0.70;;;9.80;99.90;;;;;;4953481;28;20206;-66
2023/11/02 12:26:00;;;;;;;1.73;0.88;;;9.70;99.90;;;;;;4952878;28;20204;-66
2023/11/02 12:28:27;;;;;;;1.98;0.80;;;9.70;99.90;;;;;;4952964;28;20217;-66
2023/11/02 12:30:53;;;;;;;1.00;0.90;;;9.70;99.90;;;;;;4953254;28;20220;-66
2023/11/02 12:33:21;;;;;;;1.38;0.98;;;9.70;99.90;;;;;;4953294;28;20209;-66
2023/11/02 12:35:53;;;;;;;1.15;0.77;;;9.80;99.90;;;;;;4952662;28;20721;-66
2023/11/02 12:38:35;;;;;;;1.00;0.90;;;9.70;99.90;;;;;;4952817;28;20215;-66
2023/11/02 12:41:05;;;;;;;1.25;1.00;;;9.80;99.90;;;;;;4952990;28;20235;-67
2023/11/02 12:43:34;;;;;;;1.10;1.00;;;9.70;99.90;;;;;;4950278;28;20221;-66
2023/11/02 12:46:06;;;;;;;0.90;0.80;;;9.70;99.90;;;;;;4952958;28;20308;-66
2023/11/02 12:48:36;;;;;;;3.92;0.90;;;9.80;99.90;;;;;;4952615;28;20263;-66
2023/11/02 12:51:20;;;;;;;1.20;1.00;;;9.80;99.90;;;;;;4952889;28;20220;-66
2023/11/02 12:53:49;;;;;;;1.33;0.70;;;9.80;99.90;;;;;;4951769;28;20239;-66
2023/11/02 12:56:22;;;;;;;1.23;1.08;;;9.70;99.90;;;;;;4952975;28;20216;-66
2023/11/02 12:58:59;;;;;;;1.00;0.90;;;9.70;99.90;;;;;;4952786;28;20298;-67
2023/11/02 13:01:42;;;;;;;1.42;1.00;;;9.70;99.90;;;;;;4953155;28;21522;-65
2023/11/02 13:04:09;;;;;;;1.90;1.15;;;9.70;99.90;;;;;;4952699;28;20213;-67
2023/11/02 13:06:36;;;;;;;1.00;0.90;;;9.70;99.90;;;;;;4952211;28;20681;-66
2023/11/02 13:09:08;;;;;;;1.30;0.90;;;9.70;99.90;;;;;;4952942;28;20674;-66
2023/11/02 13:11:35;;;;;;;1.00;0.90;;;9.70;99.90;;;;;;4950036;28;20589;-66
2023/11/02 13:14:02;;;;;;;1.00;0.90;;;9.70;99.90;;;;;;4952682;28;20208;-66
2023/11/02 13:16:29;;;;;;;1.40;0.80;;;9.60;99.90;;;;;;4952475;28;20208;-66
2023/11/02 13:18:56;;;;;;;1.38;0.90;;;9.60;99.90;;;;;;4952406;28;20209;-67
2023/11/02 13:21:23;;;;;;;1.15;1.00;;;9.60;99.90;;;;;;4952702;28;20732;-66
2023/11/02 13:23:53;;;;;;;1.25;0.90;;;9.60;99.90;;;;;;4952067;28;20223;-66
2023/11/02 13:26:23;;;;;;;0.88;0.73;;;9.60;99.90;;;;;;4956375;28;20204;-66
2023/11/02 13:28:50;;;;;;;2.22;0.93;;;9.60;99.90;;;;;;4951399;28;20236;-67
2023/11/02 13:31:18;;;;;;;1.27;1.00;;;9.60;99.90;;;;;;4952771;28;20616;-66
2023/11/02 13:33:44;;;;;;;1.25;0.82;;;9.60;99.90;;;;;;4955155;28;20208;-66
2023/11/02 13:36:12;;;;;;;1.00;0.80;;;9.60;99.90;;;;;;4956684;28;20693;-67
2023/11/02 13:38:40;;;;;;;0.93;0.82;;;9.60;99.90;;;;;;4955950;28;20223;-67
2023/11/02 13:41:07;;;;;;;1.50;0.85;;;9.60;99.90;;;;;;4956088;28;20224;-66
2023/11/02 13:43:36;;;;;;;1.42;0.80;;;9.60;99.90;;;;;;4956279;28;20208;-68
2023/11/02 13:46:02;;;;;;;0.90;0.70;;;9.60;99.90;;;;;;4956201;28;20597;-66
2023/11/02 13:48:29;;;;;;;1.15;0.82;;;9.60;99.90;;;;;;4956096;28;20204;-66
2023/11/02 13:51:00;;;;;;;1.40;0.80;;;9.70;99.90;;;;;;4956030;28;20702;-66
2023/11/02 13:53:28;;;;;;;0.80;0.70;;;9.70;99.90;;;;;;4965369;28;20303;-66
2023/11/02 13:55:56;;;;;;;1.13;1.02;;;9.70;99.90;;;;;;4955710;28;23850;-66
2023/11/02 13:58:23;;;;;;;1.10;0.80;;;9.70;99.90;;;;;;4960214;28;20264;-66
2023/11/02 14:00:53;;;;;;;0.90;0.75;;;9.70;99.90;;;;;;4955834;28;20235;-66
2023/11/02 14:03:20;;;;;;;1.00;0.80;;;9.70;99.90;;;;;;4956515;28;20272;-66
2023/11/02 14:05:51;;;;;;;0.90;0.70;;;9.70;99.90;;;;;;4953899;28;20205;-66
2023/11/02 14:08:21;;;;;;;0.80;0.70;;;9.70;99.90;;;;;;4956180;28;20213;-66
2023/11/02 14:10:48;;;;;;;0.90;0.80;;;9.70;99.90;;;;;;4955694;28;20231;-65
2023/11/02 14:13:15;;;;;;;0.88;0.75;;;9.70;99.90;;;;;;4955104;28;20220;-67
2023/11/02 14:15:42;;;;;;;1.25;0.98;;;9.70;99.90;;;;;;4955263;28;20208;-67
2023/11/02 14:18:12;;;;;;;0.80;0.80;;;9.70;99.90;;;;;;4955720;28;20632;-67
2023/11/02 14:20:39;;;;;;;0.80;0.80;;;9.80;99.90;;;;;;4955574;28;20697;-67
2023/11/02 14:23:06;;;;;;;1.50;0.90;;;9.80;99.90;;;;;;4955571;28;20204;-67
2023/11/02 14:25:34;;;;;;;1.17;0.85;;;9.80;99.90;;;;;;4951914;28;20212;-67
2023/11/02 14:28:01;;;;;;;1.15;0.90;;;9.70;99.90;;;;;;4958825;28;20585;-67
2023/11/02 14:30:27;;;;;;;1.00;0.90;;;9.70;99.90;;;;;;4955572;28;20678;-67
2023/11/02 14:32:55;;;;;;;0.98;0.80;;;9.70;99.90;;;;;;4955071;28;20216;-67
2023/11/02 14:35:25;;;;;;;1.45;0.82;;;9.70;99.90;;;;;;4955533;28;20276;-67
2023/11/02 14:37:53;;;;;;;1.30;0.93;;;9.70;99.90;;;;;;4955181;28;20210;-67
2023/11/02 14:40:20;;;;;;;1.35;0.93;;;9.70;99.90;;;;;;4954965;28;20233;-67
2023/11/02 14:42:46;;;;;;;0.80;0.70;;;9.70;99.90;;;;;;4955295;28;20221;-67
2023/11/02 14:45:13;;;;;;;0.70;0.60;;;9.70;99.90;;;;;;4955013;28;20209;-67
2023/11/02 14:47:40;;;;;;;0.98;0.82;;;9.70;99.90;;;;;;4954783;28;20228;-66
2023/11/02 14:50:08;;;;;;;1.13;0.90;;;9.70;99.90;;;;;;4955341;28;20593;-67
2023/11/02 14:52:38;;;;;;;1.30;0.90;;;9.60;99.90;;;;;;4955011;28;20228;-67
2023/11/02 14:55:07;;;;;;;0.80;0.70;;;9.60;99.90;;;;;;4954814;28;20263;-67
2023/11/02 14:57:34;;;;;;;0.80;0.80;;;9.60;99.90;;;;;;4951293;28;20635;-67
2023/11/02 15:00:01;;;;;;;1.08;0.98;;;9.60;99.90;;;;;;4954747;28;20701;-67
2023/11/02 15:02:27;;;;;;;1.10;1.00;;;9.60;99.90;;;;;;4954861;28;20717;-67
2023/11/02 15:04:55;;;;;;;1.42;0.90;;;9.50;99.90;;;;;;4947082;28;20232;-67
2023/11/02 15:07:23;;;;;;;0.80;0.70;;;9.50;99.90;;;;;;4951317;28;20209;-67
2023/11/02 15:09:52;;;;;;;1.45;0.80;;;9.50;99.90;;;;;;4953990;28;20213;-65
2023/11/02 15:12:19;;;;;;;1.02;0.85;;;9.50;99.90;;;;;;4954142;28;20259;-65
2023/11/02 15:14:46;;;;;;;0.80;0.70;;;9.50;99.90;;;;;;4957467;28;20299;-65
2023/11/02 15:17:13;;;;;;;0.80;0.70;;;9.60;99.90;;;;;;4956337;28;20212;-65
2023/11/02 15:19:41;;;;;;;1.38;0.80;;;9.50;99.90;;;;;;4954081;28;20219;-65
2023/11/02 15:22:08;;;;;;;0.93;0.80;;;9.50;99.90;;;;;;4953870;28;20232;-65
2023/11/02 15:24:37;;;;;;;1.35;0.88;;;9.50;99.90;;;;;;4950069;28;20616;-66
2023/11/02 15:27:10;;;;;;;1.23;0.73;;;9.40;99.90;;;;;;4952933;28;20231;-65
2023/11/02 15:29:38;;;;;;;1.10;1.00;;;9.40;99.90;;;;;;4955828;28;20709;-65
2023/11/02 15:32:05;;;;;;;0.70;0.65;;;9.40;99.90;;;;;;4950350;28;20242;-68
2023/11/02 15:34:32;;;;;;;0.70;0.60;;;9.50;99.90;;;;;;4946066;28;20267;-66
2023/11/02 15:36:59;;;;;;;1.10;0.90;;;9.40;99.90;;;;;;4946956;28;20439;-65
2023/11/02 15:39:26;;;;;;;1.10;0.90;;;9.40;99.90;;;;;;4951309;28;20217;-65
2023/11/02 15:41:54;;;;;;;1.15;0.80;;;9.40;99.90;;;;;;4946396;28;20229;-65
2023/11/02 15:44:22;;;;;;;1.88;0.73;;;9.40;99.90;;;;;;4952975;28;20210;-65
2023/11/02 15:46:48;;;;;;;1.67;1.00;;;9.40;99.90;;;;;;4946037;28;20222;-65
2023/11/02 15:49:15;;;;;;;0.93;0.80;;;9.40;99.90;;;;;;4952389;28;20225;-65
2023/11/02 15:51:43;;;;;;;1.00;0.90;;;9.40;99.90;;;;;;4945889;28;20220;-65
2023/11/02 15:54:11;;;;;;;1.00;0.70;;;9.40;99.90;;;;;;4950863;28;20213;-65
2023/11/02 15:56:39;;;;;;;0.90;0.70;;;9.40;99.90;;;;;;4946624;28;20435;-65
2023/11/02 15:59:06;;;;;;;1.88;0.93;;;9.30;99.90;;;;;;4950126;28;20216;-65
2023/11/02 16:01:36;;;;;;;1.13;0.90;;;9.30;99.90;;;;;;4945951;28;20225;-65
2023/11/02 16:04:03;;;;;;;1.00;0.80;;;9.40;99.90;;;;;;4945192;28;20213;-65
2023/11/02 16:06:30;;;;;;;1.02;0.75;;;9.30;99.90;;;;;;4946314;28;20225;-67
2023/11/02 16:08:57;;;;;;;0.95;0.70;;;9.30;99.90;;;;;;4944299;28;20221;-67
2023/11/02 16:11:23;;;;;;;1.10;0.77;;;9.40;99.90;;;;;;4946052;28;20225;-67
2023/11/02 16:13:50;;;;;;;1.70;1.15;;;9.30;99.90;;;;;;4944574;28;20292;-67
2023/11/02 16:16:17;;;;;;;1.25;0.98;;;9.30;99.90;;;;;;4944769;28;20721;-67
2023/11/02 16:18:47;;;;;;;1.10;0.98;;;9.30;99.90;;;;;;4944790;28;20219;-67
2023/11/02 16:21:14;;;;;;;1.23;0.98;;;9.30;99.90;;;;;;4952163;28;20224;-67
2023/11/02 16:23:41;;;;;;;1.17;1.08;;;9.30;99.90;;;;;;4951163;28;20311;-67
2023/11/02 16:26:10;;;;;;;1.30;1.10;;;9.30;99.90;;;;;;4951014;28;20459;-67
2023/11/02 16:28:37;;;;;;;1.20;1.00;;;9.30;99.90;;;;;;4952773;28;20208;-68
2023/11/02 16:31:04;;;;;;;1.80;0.80;;;9.20;99.90;;;;;;4952173;28;20232;-68
2023/11/02 16:33:31;;;;;;;1.30;1.02;;;9.30;99.90;;;;;;4953043;28;20213;-67
2023/11/02 16:35:59;;;;;;;1.23;0.90;;;9.30;99.90;;;;;;4951004;28;20223;-67
2023/11/02 16:38:26;;;;;;;1.00;0.90;;;9.30;99.90;;;;;;4951632;28;20709;-68
2023/11/02 16:40:53;;;;;;;3.50;1.15;;;9.20;99.90;;;;;;4951706;28;20251;-67
2023/11/02 16:43:19;;;;;;;1.35;1.10;;;9.20;99.90;;;;;;4952211;28;20228;-67
2023/11/02 16:45:46;;;;;;;1.63;1.15;;;9.20;99.90;;;;;;4951917;28;20591;-67
2023/11/02 16:48:14;;;;;;;1.40;0.90;;;9.20;99.90;;;;;;4951712;28;20569;-67
2023/11/02 16:50:41;;;;;;;2.22;1.15;;;9.20;99.90;;;;;;4952303;28;20224;-67
2023/11/02 16:53:09;;;;;;;1.42;1.00;;;9.20;99.90;;;;;;4951840;28;20216;-68
2023/11/02 16:55:37;;;;;;;0.80;0.80;;;9.20;99.90;;;;;;4951939;28;20219;-67
2023/11/02 16:58:04;;;;;;;1.23;1.08;;;9.20;99.90;;;;;;4951634;28;20212;-68
2023/11/02 17:00:30;;;;;;;1.10;1.00;;;9.20;99.90;;;;;;4952189;28;20231;-67
2023/11/02 17:02:57;;;;;;;0.80;0.73;;;9.20;99.90;;;;;;4951856;28;20221;-67
2023/11/02 17:05:24;;;;;;;2.67;1.00;;;9.20;99.90;;;;;;4952203;28;20216;-67
2023/11/02 17:07:50;;;;;;;1.13;0.82;;;9.20;99.90;;;;;;4950784;28;20626;-67
2023/11/02 17:10:18;;;;;;;1.00;0.90;;;9.20;99.90;;;;;;4952286;28;20223;-67
2023/11/02 17:12:46;;;;;;;1.70;1.15;;;9.20;99.90;;;;;;4952457;28;20216;-67
2023/11/02 17:15:13;;;;;;;1.40;1.30;;;9.20;99.90;;;;;;4951581;28;20263;-68